Time;durP1;ratioP1;P1;durP2;ratioP2;P2;SDS_P1;SDS_P2;PMS_P1;PMS_P2;Temp;Humidity;BMP_temperature;BMP_pressure;BME280_temperature;BME280_humidity;BME280_pressure;Samples;Min_cycle;Max_cycle;Signal;HPM_P1;HPM_P2
2021/12/08 00:00:47;;;;;;;1.58;1.00;;;;;;;-140.79;100.00;63287.88;5047919;28;20037;-58
2021/12/08 00:03:13;;;;;;;1.90;0.80;;;;;;;-140.79;100.00;63287.88;5047782;28;20030;-52
2021/12/08 00:05:39;;;;;;;1.83;1.00;;;;;;;-140.79;100.00;63287.88;5047707;28;20025;-57
2021/12/08 00:08:05;;;;;;;2.33;1.23;;;;;;;-140.79;100.00;63287.88;5047754;28;20060;-59
2021/12/08 00:15:35;;;;;;;1.70;1.00;;;;;;;-140.79;100.00;63287.88;5047056;28;20033;-57
2021/12/08 00:18:01;;;;;;;1.85;1.20;;;;;;;-140.79;100.00;63287.88;5047062;28;20025;-58
2021/12/08 00:20:29;;;;;;;1.20;0.70;;;;;;;-140.79;100.00;63287.88;5046984;28;20617;-55
2021/12/08 00:22:54;;;;;;;1.30;0.80;;;;;;;-140.79;100.00;63287.88;5046631;28;20041;-55
2021/12/08 00:25:20;;;;;;;1.35;0.80;;;;;;;-140.79;100.00;63287.88;5045973;28;20029;-57
2021/12/08 00:27:45;;;;;;;1.50;1.00;;;;;;;-140.79;100.00;63287.88;5047238;28;20234;-56
2021/12/08 00:30:11;;;;;;;2.60;1.00;;;;;;;-140.79;100.00;63287.88;5045613;28;20032;-56
2021/12/08 00:32:36;;;;;;;1.48;0.90;;;;;;;-140.79;100.00;63287.88;5046935;28;20057;-57
2021/12/08 00:35:04;;;;;;;1.35;0.93;;;;;;;-140.79;100.00;63287.88;5046424;28;20071;-57
2021/12/08 00:37:29;;;;;;;1.63;0.85;;;;;;;-140.79;100.00;63287.88;5046993;28;20021;-55
2021/12/08 00:39:56;;;;;;;1.67;0.90;;;;;;;-140.79;100.00;63287.88;5046909;28;20056;-54
2021/12/08 00:42:21;;;;;;;1.67;0.98;;;;;;;-140.79;100.00;63287.88;5046865;28;20541;-53
2021/12/08 00:44:46;;;;;;;2.50;1.00;;;;;;;-140.79;100.00;63287.88;5045389;28;20052;-55
2021/12/08 00:47:12;;;;;;;1.67;0.95;;;;;;;-140.79;100.00;63287.88;5046623;28;20044;-54
2021/12/08 00:49:39;;;;;;;1.75;0.80;;;;;;;-140.79;100.00;63287.88;5046632;28;20112;-57
2021/12/08 00:52:05;;;;;;;1.42;0.80;;;;;;;-140.79;100.00;63287.88;5046295;28;20080;-55
2021/12/08 00:54:31;;;;;;;1.73;0.90;;;;;;;-140.79;100.00;63287.88;5046405;28;20517;-54
2021/12/08 00:56:57;;;;;;;1.65;0.80;;;;;;;-140.79;100.00;63287.88;5046202;28;20021;-54
2021/12/08 00:59:22;;;;;;;1.50;0.80;;;;;;;-140.79;100.00;63287.88;5045950;28;20463;-53
2021/12/08 01:01:48;;;;;;;1.48;0.77;;;;;;;-140.79;100.00;63287.88;5045185;28;20037;-50
2021/12/08 01:04:15;;;;;;;2.00;1.10;;;;;;;-140.79;100.00;63287.88;5046238;28;20036;-51
2021/12/08 01:06:41;;;;;;;1.80;0.80;;;;;;;-140.79;100.00;63287.88;5046122;28;20533;-52
2021/12/08 01:09:07;;;;;;;1.73;0.93;;;;;;;-140.79;100.00;63287.88;5045952;28;20486;-53
2021/12/08 01:11:32;;;;;;;2.53;0.93;;;;;;;-140.79;100.00;63287.88;5046466;28;20040;-56
2021/12/08 01:13:57;;;;;;;1.92;1.00;;;;;;;-140.79;100.00;63287.88;5046279;28;20494;-55
2021/12/08 01:16:23;;;;;;;1.27;0.77;;;;;;;-140.79;100.00;63287.88;5046063;28;20075;-52
2021/12/08 01:18:49;;;;;;;1.33;0.70;;;;;;;-140.79;100.00;63287.88;5046061;28;20916;-52
2021/12/08 01:21:14;;;;;;;1.20;0.70;;;;;;;-140.79;100.00;63287.88;5045811;28;20234;-52
2021/12/08 01:23:40;;;;;;;1.05;0.63;;;;;;;-140.79;100.00;63287.88;5045582;28;20407;-54
2021/12/08 01:26:06;;;;;;;1.27;0.75;;;;;;;-140.79;100.00;63287.88;5045691;28;20017;-54
2021/12/08 01:28:32;;;;;;;1.40;0.82;;;;;;;-140.79;100.00;63287.88;5045633;28;20033;-54
2021/12/08 01:30:59;;;;;;;0.98;0.75;;;;;;;-140.79;100.00;63287.88;5045427;28;20174;-53
2021/12/08 01:33:25;;;;;;;1.50;0.77;;;;;;;-140.79;100.00;63287.88;5045612;28;20470;-52
2021/12/08 01:35:51;;;;;;;1.33;0.70;;;;;;;-140.79;100.00;63287.88;5045201;28;20036;-55
2021/12/08 01:38:17;;;;;;;1.50;0.75;;;;;;;-140.79;100.00;63287.88;5045705;28;20125;-54
2021/12/08 01:40:42;;;;;;;1.38;0.65;;;;;;;-140.79;100.00;63287.88;5045824;28;20108;-53
2021/12/08 01:43:22;;;;;;;1.27;0.60;;;;;;;-140.79;100.00;63287.88;5045466;28;20765;-54
2021/12/08 01:45:59;;;;;;;1.67;0.82;;;;;;;-140.79;100.00;63287.88;5045521;28;20795;-56
2021/12/08 01:48:25;;;;;;;1.38;0.70;;;;;;;-140.79;100.00;63287.88;5045897;28;20091;-57
2021/12/08 01:50:53;;;;;;;1.27;0.60;;;;;;;-140.79;100.00;63287.88;5045077;28;20053;-55
2021/12/08 01:53:19;;;;;;;1.50;0.70;;;;;;;-140.79;100.00;63287.88;5045502;28;20028;-58
2021/12/08 01:55:44;;;;;;;1.88;0.95;;;;;;;-140.79;100.00;63287.88;5043799;28;20051;-54
2021/12/08 01:58:10;;;;;;;1.58;0.93;;;;;;;-140.79;100.00;63287.88;5045357;28;20029;-57
2021/12/08 02:00:39;;;;;;;2.03;1.02;;;;;;;-140.79;100.00;63287.88;5045474;28;20038;-57
2021/12/08 02:03:04;;;;;;;1.50;0.80;;;;;;;-140.79;100.00;63287.88;5045158;28;20090;-57
2021/12/08 02:05:30;;;;;;;1.30;0.70;;;;;;;-140.79;100.00;63287.88;5044885;28;20021;-58
2021/12/08 02:07:55;;;;;;;1.48;0.63;;;;;;;-140.79;100.00;63287.88;5045008;28;20507;-54
2021/12/08 02:10:21;;;;;;;3.42;0.80;;;;;;;-140.79;100.00;63287.88;5045116;28;20020;-54
2021/12/08 02:12:47;;;;;;;1.17;0.70;;;;;;;-140.79;100.00;63287.88;5044808;28;20021;-57
2021/12/08 02:15:13;;;;;;;1.50;0.85;;;;;;;-140.79;100.00;63287.88;5044873;28;20053;-57
2021/12/08 02:17:39;;;;;;;1.42;0.73;;;;;;;-140.79;100.00;63287.88;5044791;28;20060;-57
2021/12/08 02:20:06;;;;;;;1.70;0.73;;;;;;;-140.79;100.00;63287.88;5045170;28;20048;-57
2021/12/08 02:22:31;;;;;;;2.00;0.70;;;;;;;-140.79;100.00;63287.88;5045225;28;20055;-54
2021/12/08 02:24:57;;;;;;;1.35;0.80;;;;;;;-140.79;100.00;63287.88;5043801;28;20423;-57
2021/12/08 02:27:22;;;;;;;1.70;0.75;;;;;;;-140.79;100.00;63287.88;5045438;28;20029;-57
2021/12/08 02:29:55;;;;;;;1.00;0.68;;;;;;;-140.79;100.00;63287.88;5045364;28;20162;-57
2021/12/08 02:48:27;;;;;;;1.40;0.70;;;;;;;-140.79;100.00;63287.88;5044510;28;20720;-58
2021/12/08 02:50:53;;;;;;;1.00;0.52;;;;;;;-140.79;100.00;63287.88;5043449;28;20128;-56
2021/12/08 02:53:18;;;;;;;1.60;0.90;;;;;;;-140.79;100.00;63287.88;5043885;28;20029;-53
2021/12/08 02:55:44;;;;;;;1.02;0.60;;;;;;;-140.79;100.00;63287.88;5043478;28;20005;-55
2021/12/08 02:58:10;;;;;;;1.00;0.70;;;;;;;-140.79;100.00;63287.88;5043505;28;20025;-52
2021/12/08 03:00:40;;;;;;;1.45;0.70;;;;;;;-140.79;100.00;63287.88;5043785;28;20029;-51
2021/12/08 03:03:06;;;;;;;1.15;0.77;;;;;;;-140.79;100.00;63287.88;5043521;28;20029;-55
2021/12/08 03:05:31;;;;;;;1.25;0.60;;;;;;;-140.79;100.00;63287.88;5038902;28;20028;-50
2021/12/08 03:07:57;;;;;;;1.40;0.85;;;;;;;-140.79;100.00;63287.88;5032770;28;20116;-52
2021/12/08 03:10:25;;;;;;;1.98;0.70;;;;;;;-140.79;100.00;63287.88;5043897;28;20522;-52
2021/12/08 03:12:51;;;;;;;1.60;0.73;;;;;;;-140.79;100.00;63287.88;5043914;28;21481;-57
2021/12/08 03:15:16;;;;;;;1.50;0.77;;;;;;;-140.79;100.00;63287.88;5038827;28;20091;-53
2021/12/08 03:17:42;;;;;;;1.38;0.90;;;;;;;-140.79;100.00;63287.88;5030332;28;20021;-55
2021/12/08 03:20:14;;;;;;;1.42;0.77;;;;;;;-140.79;100.00;63287.88;5043772;28;20063;-52
2021/12/08 03:22:44;;;;;;;1.58;0.80;;;;;;;-140.79;100.00;63287.88;5043818;28;20033;-55
2021/12/08 03:25:13;;;;;;;1.88;0.95;;;;;;;-140.79;100.00;63287.88;5042980;28;20029;-55
2021/12/08 03:27:46;;;;;;;1.70;0.80;;;;;;;-140.79;100.00;63287.88;5043795;28;20040;-55
2021/12/08 03:30:20;;;;;;;1.20;0.70;;;;;;;-140.79;100.00;63287.88;5043890;28;20071;-54
2021/12/08 03:32:45;;;;;;;1.63;0.88;;;;;;;-140.79;100.00;63287.88;5043584;28;20552;-56
2021/12/08 03:35:14;;;;;;;1.25;0.80;;;;;;;-140.79;100.00;63287.88;5043299;28;20041;-52
2021/12/08 03:37:42;;;;;;;2.13;1.05;;;;;;;-140.79;100.00;63287.88;5042593;28;20124;-56
2021/12/08 03:40:13;;;;;;;1.30;0.82;;;;;;;-140.79;100.00;63287.88;5043630;28;20090;-55
2021/12/08 03:42:39;;;;;;;1.48;0.90;;;;;;;-140.79;100.00;63287.88;5029267;28;20479;-55
2021/12/08 03:45:09;;;;;;;1.27;0.70;;;;;;;-140.79;100.00;63287.88;5025638;28;20021;-54
2021/12/08 03:47:38;;;;;;;1.50;0.80;;;;;;;-140.79;100.00;63287.88;5043898;28;20419;-55
2021/12/08 03:50:04;;;;;;;1.73;1.00;;;;;;;-140.79;100.00;63287.88;5043877;28;20037;-53
2021/12/08 03:52:29;;;;;;;1.67;1.00;;;;;;;-140.79;100.00;63287.88;5043408;28;20055;-54
2021/12/08 03:54:55;;;;;;;1.83;1.02;;;;;;;-140.79;100.00;63287.88;5043079;28;20029;-57
2021/12/08 03:57:20;;;;;;;1.98;0.88;;;;;;;-140.79;100.00;63287.88;5042233;28;20132;-57
2021/12/08 03:59:46;;;;;;;1.80;1.20;;;;;;;-140.79;100.00;63287.88;5043825;28;20091;-54
2021/12/08 04:02:11;;;;;;;10.68;9.65;;;;;;;-140.79;100.00;63287.88;5032267;28;20107;-56
2021/12/08 04:04:49;;;;;;;7.88;3.13;;;;;;;-140.79;100.00;63287.88;5030287;28;20028;-53
2021/12/08 04:07:16;;;;;;;2.13;1.20;;;;;;;-140.79;100.00;63287.88;5025660;28;20025;-57
2021/12/08 04:09:44;;;;;;;2.40;1.30;;;;;;;-140.79;100.00;63287.88;5023666;28;20500;-60
2021/12/08 04:12:11;;;;;;;2.28;1.42;;;;;;;-140.79;100.00;63287.88;5023695;28;20071;-57
2021/12/08 04:14:40;;;;;;;2.38;1.30;;;;;;;-140.79;100.00;63287.88;5037352;28;20025;-61
2021/12/08 04:17:06;;;;;;;31.08;28.23;;;;;;;-140.79;100.00;63287.88;5034016;28;20053;-59
2021/12/08 04:19:32;;;;;;;268.10;155.15;;;;;;;-140.79;100.00;63287.88;5023993;28;20037;-59
2021/12/08 04:21:59;;;;;;;174.52;107.75;;;;;;;-140.79;100.00;63287.88;5031713;28;20072;-59
2021/12/08 04:24:24;;;;;;;491.08;299.55;;;;;;;-140.79;100.00;63287.88;5029974;28;20537;-56
2021/12/08 04:26:55;;;;;;;493.95;296.33;;;;;;;-140.79;100.00;63287.88;5023904;28;20117;-60
2021/12/08 04:29:23;;;;;;;444.92;291.45;;;;;;;-140.79;100.00;63287.88;5041589;28;20033;-60
2021/12/08 04:31:50;;;;;;;1123.25;950.65;;;;;;;-140.79;100.00;63287.88;5036498;28;20454;-60
2021/12/08 04:34:19;;;;;;;838.97;608.25;;;;;;;-140.79;100.00;63287.88;5032218;28;20033;-60
2021/12/08 04:36:47;;;;;;;647.20;470.88;;;;;;;-140.79;100.00;63287.88;5038362;28;20029;-59
2021/12/08 04:40:10;;;;;;;516.13;323.65;;;;;;;-140.79;100.00;63287.88;5043595;28;20079;-60
2021/12/08 04:42:36;;;;;;;515.00;317.40;;;;;;;-140.79;100.00;63287.88;5044220;28;20128;-59
2021/12/08 04:45:09;;;;;;;519.33;318.55;;;;;;;-140.79;100.00;63287.88;5044058;28;20071;-56
2021/12/08 04:47:46;;;;;;;605.60;404.75;;;;;;;-140.79;100.00;63287.88;5044574;28;20410;-61
2021/12/08 04:50:38;;;;;;;840.88;726.90;;;;;;;-140.79;100.00;63287.88;5044444;28;20033;-60
2021/12/08 04:53:30;;;;;;;1038.25;900.42;;;;;;;-140.79;100.00;63287.88;5045811;28;20036;-60
2021/12/08 05:04:32;;;;;;;1312.15;999.90;;;;;;;-140.79;100.00;63287.88;5046324;28;20593;-62
2021/12/08 05:07:17;;;;;;;1403.85;999.90;;;;;;;-140.79;100.00;63287.88;5040975;28;20078;-61
2021/12/08 05:09:44;;;;;;;1470.43;999.90;;;;;;;-140.79;100.00;63287.88;5030546;28;20036;-62
2021/12/08 05:12:14;;;;;;;1204.75;996.30;;;;;;;-140.79;100.00;63287.88;5026858;28;20033;-61
2021/12/08 05:14:52;;;;;;;1239.10;999.90;;;;;;;-140.79;100.00;63287.88;5028318;28;20337;-61
2021/12/08 05:17:21;;;;;;;1479.05;999.90;;;;;;;-140.79;100.00;63287.88;5029056;28;20029;-61
2021/12/08 05:19:49;;;;;;;1383.50;999.90;;;;;;;-140.79;100.00;63287.88;5026309;28;20025;-58
2021/12/08 05:22:21;;;;;;;1316.38;999.90;;;;;;;-140.79;100.00;63287.88;5026021;28;20036;-58
2021/12/08 05:24:48;;;;;;;1316.70;999.90;;;;;;;-140.79;100.00;63287.88;5025559;28;20033;-60
2021/12/08 05:27:26;;;;;;;573.10;407.92;;;;;;;-140.79;100.00;63287.88;5019863;28;20049;-58
2021/12/08 05:30:09;;;;;;;28.83;26.38;;;;;;;-140.79;100.00;63287.88;5027356;28;20589;-60
2021/12/08 05:32:34;;;;;;;86.50;69.97;;;;;;;-140.79;100.00;63287.88;5039471;28;20029;-61
2021/12/08 05:35:00;;;;;;;357.75;205.15;;;;;;;-140.79;100.00;63287.88;5040159;28;20503;-58
2021/12/08 05:37:25;;;;;;;1591.57;999.90;;;;;;;-140.79;100.00;63287.88;5025042;28;20083;-51
2021/12/08 05:39:51;;;;;;;1323.65;946.83;;;;;;;-140.79;100.00;63287.88;5033273;28;20083;-54
2021/12/08 05:42:28;;;;;;;1528.32;999.90;;;;;;;-140.79;100.00;63287.88;5045468;28;20025;-62
2021/12/08 05:44:54;;;;;;;1514.28;999.90;;;;;;;-140.79;100.00;63287.88;5033184;28;20131;-61
2021/12/08 05:47:23;;;;;;;1578.03;999.90;;;;;;;-140.79;100.00;63287.88;5045118;28;20251;-55
2021/12/08 05:49:48;;;;;;;1592.60;999.90;;;;;;;-140.79;100.00;63287.88;5045757;28;20033;-56
2021/12/08 05:52:14;;;;;;;1567.53;999.90;;;;;;;-140.79;100.00;63287.88;5045534;28;20576;-67
2021/12/08 05:54:40;;;;;;;1552.35;999.90;;;;;;;-140.79;100.00;63287.88;5045673;28;20074;-66
2021/12/08 05:57:12;;;;;;;1116.47;925.83;;;;;;;-140.79;100.00;63287.88;5044266;28;20036;-51
2021/12/08 05:59:38;;;;;;;931.20;804.90;;;;;;;-140.79;100.00;63287.88;5044091;28;20411;-55
2021/12/08 06:02:11;;;;;;;1029.60;894.05;;;;;;;-140.79;100.00;63287.88;5045147;28;20045;-57
2021/12/08 06:04:37;;;;;;;1106.55;952.05;;;;;;;-140.79;100.00;63287.88;5045400;28;20511;-59
2021/12/08 06:07:03;;;;;;;1037.38;882.90;;;;;;;-140.79;100.00;63287.88;5045230;28;20055;-62
2021/12/08 06:09:29;;;;;;;1230.35;999.90;;;;;;;-140.79;100.00;63287.88;5045481;28;20065;-68
2021/12/08 06:11:55;;;;;;;1257.03;999.90;;;;;;;-140.79;100.00;63287.88;5045402;28;20021;-69
2021/12/08 06:14:21;;;;;;;925.42;793.47;;;;;;;-140.79;100.00;63287.88;5043850;28;20468;-59
2021/12/08 06:16:48;;;;;;;993.85;856.97;;;;;;;-140.79;100.00;63287.88;5044624;28;20107;-65
2021/12/08 06:19:14;;;;;;;1431.47;999.90;;;;;;;-140.79;100.00;63287.88;5044797;28;20025;-64
2021/12/08 06:21:39;;;;;;;1381.90;999.90;;;;;;;-140.79;100.00;63287.88;5045156;28;20025;-67
2021/12/08 06:24:06;;;;;;;1424.45;999.90;;;;;;;-140.79;100.00;63287.88;5045247;28;20036;-60
2021/12/08 06:26:32;;;;;;;1468.75;999.90;;;;;;;-140.79;100.00;63287.88;5045079;28;20028;-63
2021/12/08 06:28:57;;;;;;;1470.57;999.90;;;;;;;-140.79;100.00;63287.88;5044980;28;20066;-61
2021/12/08 06:31:24;;;;;;;1383.30;999.90;;;;;;;-140.79;100.00;63287.88;5044635;28;20585;-65
2021/12/08 06:33:50;;;;;;;1376.78;999.90;;;;;;;-140.79;100.00;63287.88;5044716;28;20572;-62
2021/12/08 06:36:24;;;;;;;1543.32;999.90;;;;;;;-140.79;100.00;63287.88;5044894;28;20041;-58
2021/12/08 06:38:50;;;;;;;1218.45;938.10;;;;;;;-140.79;100.00;63287.88;5044875;28;20021;-63
2021/12/08 06:41:25;;;;;;;990.55;855.05;;;;;;;-140.79;100.00;63287.88;5044580;28;20098;-60
2021/12/08 06:43:53;;;;;;;986.60;800.85;;;;;;;-140.79;100.00;63287.88;5044841;28;20541;-63
2021/12/08 06:46:19;;;;;;;1509.80;999.90;;;;;;;-140.79;100.00;63287.88;5045143;28;20502;-61
2021/12/08 06:48:48;;;;;;;1632.60;999.90;;;;;;;-140.79;100.00;63287.88;5045009;28;20148;-69
2021/12/08 06:51:17;;;;;;;1506.95;999.90;;;;;;;-140.79;100.00;63287.88;5044189;28;20064;-65
2021/12/08 06:53:45;;;;;;;1299.35;999.90;;;;;;;-140.79;100.00;63287.88;5040296;28;20038;-62
2021/12/08 06:56:19;;;;;;;1340.75;999.90;;;;;;;-140.79;100.00;63287.88;5034520;28;20450;-55
2021/12/08 06:58:49;;;;;;;1392.90;999.90;;;;;;;-140.79;100.00;63287.88;5043900;28;20051;-66
2021/12/08 07:09:36;;;;;;;1659.47;999.90;;;;;;;-140.79;100.00;63287.88;5032411;28;20040;-56
2021/12/08 07:12:09;;;;;;;1652.10;999.90;;;;;;;-140.79;100.00;63287.88;5043781;28;20044;-55
2021/12/08 07:14:35;;;;;;;1658.70;999.90;;;;;;;-140.79;100.00;63287.88;5044353;28;20029;-52
2021/12/08 07:17:03;;;;;;;1670.88;999.90;;;;;;;-140.79;100.00;63287.88;5031861;28;20018;-53
2021/12/08 07:19:51;;;;;;;1659.07;999.90;;;;;;;-140.79;100.00;63287.88;5029240;28;20032;-54
2021/12/08 07:22:20;;;;;;;1649.63;999.90;;;;;;;-140.79;100.00;63287.88;5025282;28;20037;-53
2021/12/08 07:24:47;;;;;;;1647.22;999.90;;;;;;;-140.79;100.00;63287.88;5026025;28;20029;-56
2021/12/08 07:27:15;;;;;;;1677.20;999.90;;;;;;;-140.79;100.00;63287.88;5027509;28;20021;-57
2021/12/08 07:29:42;;;;;;;1685.25;999.90;;;;;;;-140.79;100.00;63287.88;5022623;28;20415;-55
2021/12/08 07:32:18;;;;;;;1699.35;999.90;;;;;;;-140.79;100.00;63287.88;5021697;28;20025;-52
2021/12/08 07:34:44;;;;;;;1703.93;999.90;;;;;;;-140.79;100.00;63287.88;5022866;28;20026;-58
2021/12/08 07:37:16;;;;;;;1693.45;999.90;;;;;;;-140.79;100.00;63287.88;5025428;28;20038;-54
2021/12/08 07:39:46;;;;;;;1699.70;999.90;;;;;;;-140.79;100.00;63287.88;5023000;28;20646;-52
2021/12/08 07:42:19;;;;;;;1708.07;999.90;;;;;;;-140.79;100.00;63287.88;5023239;28;20115;-60
2021/12/08 07:44:50;;;;;;;1709.30;999.90;;;;;;;-140.79;100.00;63287.88;5027614;28;20041;-52
2021/12/08 07:47:16;;;;;;;1709.45;999.90;;;;;;;-140.79;100.00;63287.88;5026578;28;20025;-53
2021/12/08 07:49:44;;;;;;;1715.13;999.90;;;;;;;-140.79;100.00;63287.88;5026551;28;20485;-57
2021/12/08 07:52:13;;;;;;;1707.75;999.90;;;;;;;-140.79;100.00;63287.88;5026597;28;20053;-58
2021/12/08 07:54:38;;;;;;;1696.20;999.90;;;;;;;-140.79;100.00;63287.88;5025009;28;20021;-60
2021/12/08 07:57:06;;;;;;;1703.55;999.90;;;;;;;-140.79;100.00;63287.88;5023070;28;20111;-51
2021/12/08 07:59:32;;;;;;;1699.03;999.90;;;;;;;-140.79;100.00;63287.88;5023295;28;20051;-52
2021/12/08 08:01:59;;;;;;;1687.03;999.90;;;;;;;-140.79;100.00;63287.88;5022754;28;20459;-57
2021/12/08 08:04:25;;;;;;;1690.78;999.90;;;;;;;-140.79;100.00;63287.88;5023911;28;20028;-56
2021/12/08 08:06:57;;;;;;;1697.05;999.90;;;;;;;-140.79;100.00;63287.88;5024274;28;20807;-55
2021/12/08 08:09:27;;;;;;;1695.18;999.90;;;;;;;-140.79;100.00;63287.88;5023521;28;20057;-57
2021/12/08 08:11:57;;;;;;;1693.68;999.90;;;;;;;-140.79;100.00;63287.88;5028174;28;20272;-57
2021/12/08 08:14:25;;;;;;;1686.78;999.90;;;;;;;-140.79;100.00;63287.88;5027748;28;20507;-55
2021/12/08 08:16:51;;;;;;;1695.85;999.90;;;;;;;-140.79;100.00;63287.88;5028094;28;20112;-53
2021/12/08 08:19:18;;;;;;;1703.70;999.90;;;;;;;-140.79;100.00;63287.88;5042007;28;20417;-55
2021/12/08 08:21:49;;;;;;;1693.00;999.90;;;;;;;-140.79;100.00;63287.88;5025498;28;20537;-50
2021/12/08 08:24:15;;;;;;;1695.70;999.90;;;;;;;-140.79;100.00;63287.88;5026525;28;20044;-54
2021/12/08 08:26:40;;;;;;;1701.97;999.90;;;;;;;-140.79;100.00;63287.88;5029513;28;20025;-51
2021/12/08 08:29:06;;;;;;;1690.97;999.90;;;;;;;-140.79;100.00;63287.88;5028122;28;20934;-57
2021/12/08 08:31:45;;;;;;;1700.22;999.90;;;;;;;-140.79;100.00;63287.88;5040208;28;20035;-53
2021/12/08 08:34:11;;;;;;;1704.75;999.90;;;;;;;-140.79;100.00;63287.88;5027980;28;20045;-58
2021/12/08 08:36:39;;;;;;;1697.57;999.90;;;;;;;-140.79;100.00;63287.88;5032890;28;20421;-58
2021/12/08 08:39:23;;;;;;;1687.18;999.90;;;;;;;-140.79;100.00;63287.88;5026012;28;20193;-56
2021/12/08 08:41:55;;;;;;;1685.22;999.90;;;;;;;-140.79;100.00;63287.88;5033581;28;20039;-58
2021/12/08 08:44:33;;;;;;;1679.22;999.90;;;;;;;-140.79;100.00;63287.88;5044750;28;20078;-58
2021/12/08 08:47:01;;;;;;;1705.43;999.90;;;;;;;-140.79;100.00;63287.88;5049900;28;20427;-58
2021/12/08 08:49:28;;;;;;;1688.57;999.90;;;;;;;-140.79;100.00;63287.88;5040414;28;20025;-60
2021/12/08 08:52:00;;;;;;;1694.68;999.90;;;;;;;-140.79;100.00;63287.88;5044876;28;20514;-61
2021/12/08 08:54:26;;;;;;;1709.20;999.90;;;;;;;-140.79;100.00;63287.88;5033927;28;20838;-57
2021/12/08 08:57:01;;;;;;;1711.70;999.90;;;;;;;-140.79;100.00;63287.88;5029096;28;20440;-53
2021/12/08 08:59:48;;;;;;;1703.03;999.90;;;;;;;-140.79;100.00;63287.88;5028614;28;20538;-55
2021/12/08 09:02:19;;;;;;;1699.55;999.90;;;;;;;-140.79;100.00;63287.88;5026606;28;20055;-59
2021/12/08 09:04:50;;;;;;;1725.00;999.90;;;;;;;-140.79;100.00;63287.88;5025506;28;20030;-54
2021/12/08 09:07:22;;;;;;;1717.60;999.90;;;;;;;-140.79;100.00;63287.88;5026507;28;20030;-61
2021/12/08 09:09:47;;;;;;;1706.25;999.90;;;;;;;-140.79;100.00;63287.88;5026767;28;20095;-61
2021/12/08 09:12:15;;;;;;;1708.93;999.90;;;;;;;-140.79;100.00;63287.88;5030056;28;20550;-60
2021/12/08 09:14:45;;;;;;;1707.03;999.90;;;;;;;-140.79;100.00;63287.88;5026521;28;20025;-58
2021/12/08 09:17:19;;;;;;;1712.32;999.90;;;;;;;-140.79;100.00;63287.88;5026164;28;20578;-59
2021/12/08 09:19:52;;;;;;;1703.25;999.90;;;;;;;-140.79;100.00;63287.88;5025478;28;20044;-60
2021/12/08 09:22:27;;;;;;;1714.90;999.90;;;;;;;-140.79;100.00;63287.88;5024866;28;20122;-56
2021/12/08 09:24:56;;;;;;;1711.50;999.90;;;;;;;-140.79;100.00;63287.88;5026417;28;20095;-59
2021/12/08 09:27:33;;;;;;;1717.38;999.90;;;;;;;-140.79;100.00;63287.88;5025922;28;20029;-58
2021/12/08 09:30:06;;;;;;;1706.47;999.90;;;;;;;-140.79;100.00;63287.88;5026040;28;20083;-59
2021/12/08 09:32:37;;;;;;;1702.40;999.90;;;;;;;-140.79;100.00;63287.88;5026999;28;20095;-57
2021/12/08 09:35:36;;;;;;;1710.00;999.90;;;;;;;-140.79;100.00;63287.88;5029705;28;20021;-57
2021/12/08 09:38:07;;;;;;;1715.30;999.90;;;;;;;-140.79;100.00;63287.88;5019797;28;20057;-59
2021/12/08 09:40:37;;;;;;;1714.85;999.90;;;;;;;-140.79;100.00;63287.88;5024885;28;20059;-58
2021/12/08 09:43:05;;;;;;;;;;;;;;;-140.79;100.00;63287.88;5027954;28;20074;-58
2021/12/08 09:45:34;;;;;;;1704.35;999.90;;;;;;;-140.79;100.00;63287.88;5041679;28;19931;-52
2021/12/08 09:48:02;;;;;;;1720.40;999.90;;;;;;;-140.79;100.00;63287.88;5031058;28;20120;-54
2021/12/08 09:50:27;;;;;;;1707.53;999.90;;;;;;;-140.79;100.00;63287.88;5023436;28;20128;-59
2021/12/08 09:52:53;;;;;;;1712.80;999.90;;;;;;;-140.79;100.00;63287.88;5035440;28;20114;-59
2021/12/08 09:55:18;;;;;;;1707.57;999.90;;;;;;;-140.79;100.00;63287.88;5027673;28;20025;-59
2021/12/08 09:57:45;;;;;;;1710.50;999.90;;;;;;;-140.79;100.00;63287.88;5033907;28;20354;-55
2021/12/08 10:00:15;;;;;;;1711.82;999.90;;;;;;;-140.79;100.00;63287.88;5029228;28;20499;-52
2021/12/08 10:02:40;;;;;;;;;;;;;;;-140.79;100.00;63287.88;5028654;28;20030;-56
2021/12/08 10:05:09;;;;;;;1703.22;999.90;;;;;;;-140.79;100.00;63287.88;5040651;28;19955;-55
2021/12/08 10:07:34;;;;;;;1701.75;999.90;;;;;;;-140.79;100.00;63287.88;5044949;28;20033;-57
2021/12/08 10:10:00;;;;;;;1702.75;999.90;;;;;;;-140.79;100.00;63287.88;5032451;28;20593;-56
2021/12/08 10:12:25;;;;;;;1697.65;999.90;;;;;;;-140.79;100.00;63287.88;5035938;28;20045;-54
2021/12/08 10:14:51;;;;;;;1702.80;999.90;;;;;;;-140.79;100.00;63287.88;5038802;28;20037;-55
2021/12/08 10:17:16;;;;;;;1700.28;999.90;;;;;;;-140.79;100.00;63287.88;5016753;28;20083;-59
2021/12/08 10:19:42;;;;;;;1703.80;999.90;;;;;;;-140.79;100.00;63287.88;5038361;28;20557;-57
2021/12/08 10:22:21;;;;;;;1677.32;999.90;;;;;;;-140.79;100.00;63287.88;5040201;28;20059;-53
2021/12/08 10:25:05;;;;;;;1394.95;999.90;;;;;;;-140.79;100.00;63287.88;5040064;28;20085;-54
2021/12/08 10:27:31;;;;;;;1412.60;999.90;;;;;;;-140.79;100.00;63287.88;5044411;28;20851;-58
2021/12/08 10:30:22;;;;;;;1457.65;999.90;;;;;;;-140.79;100.00;63287.88;5042262;28;20029;-57
2021/12/08 10:32:49;;;;;;;1506.30;999.90;;;;;;;-140.79;100.00;63287.88;5042055;28;20037;-59
2021/12/08 10:35:42;;;;;;;1529.60;999.90;;;;;;;-140.79;100.00;63287.88;5043049;28;20044;-53
2021/12/08 10:38:08;;;;;;;1595.97;999.90;;;;;;;-140.79;100.00;63287.88;5043433;28;20029;-53
2021/12/08 10:40:33;;;;;;;1584.28;999.90;;;;;;;-140.79;100.00;63287.88;5030538;28;20088;-57
2021/12/08 10:42:58;;;;;;;1621.22;999.90;;;;;;;-140.79;100.00;63287.88;5037866;28;20040;-53
2021/12/08 10:45:27;;;;;;;1643.85;999.90;;;;;;;-140.79;100.00;63287.88;5042554;28;20806;-58
2021/12/08 10:47:56;;;;;;;1644.68;999.90;;;;;;;-140.79;100.00;63287.88;5043913;28;20578;-58
2021/12/08 10:56:03;;;;;;;1673.57;999.90;;;;;;;-140.79;100.00;63287.88;5041731;28;20039;-57
2021/12/08 10:58:30;;;;;;;1679.70;999.90;;;;;;;-140.79;100.00;63287.88;5037806;28;20037;-51
2021/12/08 11:00:57;;;;;;;1680.25;999.90;;;;;;;-140.79;100.00;63287.88;5038626;28;20070;-55
2021/12/08 11:03:22;;;;;;;1680.25;999.90;;;;;;;-140.79;100.00;63287.88;5043968;28;20028;-57
2021/12/08 11:05:59;;;;;;;1692.30;999.90;;;;;;;-140.79;100.00;63287.88;5040523;28;20607;-55
2021/12/08 11:08:39;;;;;;;1675.82;999.90;;;;;;;-140.79;100.00;63287.88;5039005;28;20510;-58
2021/12/08 11:11:11;;;;;;;1723.75;999.90;;;;;;;-140.79;100.00;63287.88;5037976;28;20082;-57
2021/12/08 11:13:39;;;;;;;1717.90;999.90;;;;;;;-140.79;100.00;63287.88;5027940;28;20037;-56
2021/12/08 11:16:19;;;;;;;1715.22;999.90;;;;;;;-140.79;100.00;63287.88;5032347;28;20071;-54
2021/12/08 11:18:46;;;;;;;1702.47;999.90;;;;;;;-140.79;100.00;63287.88;5029923;28;20108;-52
2021/12/08 11:21:37;;;;;;;1706.47;999.90;;;;;;;-140.79;100.00;63287.88;5026622;28;20041;-52
2021/12/08 11:24:11;;;;;;;1701.57;999.90;;;;;;;-140.79;100.00;63287.88;5036331;28;20060;-59
2021/12/08 11:26:41;;;;;;;1704.40;999.90;;;;;;;-140.79;100.00;63287.88;5042892;28;20510;-56
2021/12/08 11:29:10;;;;;;;1684.90;999.90;;;;;;;-140.79;100.00;63287.88;5041086;28;20624;-55
2021/12/08 11:31:38;;;;;;;1700.07;999.90;;;;;;;-140.79;100.00;63287.88;5033785;28;20033;-57
2021/12/08 11:34:06;;;;;;;1724.13;999.90;;;;;;;-140.79;100.00;63287.88;5038302;28;20117;-62
2021/12/08 11:36:36;;;;;;;1714.80;999.90;;;;;;;-140.79;100.00;63287.88;5042449;28;20108;-57
2021/12/08 11:39:08;;;;;;;;;;;;;;;-140.79;100.00;63287.88;5043714;28;20586;-69